sensor_id;sensor_type;location;lat;lon;timestamp;P1;durP1;ratioP1;P2;durP2;ratioP2
16824;SDS011;8529;48.108;-1.706;2023-05-14T00:00:58;26.58;;;15.88;;
16824;SDS011;8529;48.108;-1.706;2023-05-14T00:03:24;28.35;;;15.88;;
16824;SDS011;8529;48.108;-1.706;2023-05-14T00:05:51;25.08;;;15.25;;
16824;SDS011;8529;48.108;-1.706;2023-05-14T00:08:18;27.77;;;16.20;;
16824;SDS011;8529;48.108;-1.706;2023-05-14T00:10:45;26.17;;;16.15;;
16824;SDS011;8529;48.108;-1.706;2023-05-14T00:13:12;29.58;;;15.98;;
16824;SDS011;8529;48.108;-1.706;2023-05-14T00:15:39;28.00;;;16.33;;
16824;SDS011;8529;48.108;-1.706;2023-05-14T00:18:08;25.80;;;15.45;;
16824;SDS011;8529;48.108;-1.706;2023-05-14T00:20:36;25.65;;;15.50;;
16824;SDS011;8529;48.108;-1.706;2023-05-14T00:23:03;26.88;;;16.55;;
16824;SDS011;8529;48.108;-1.706;2023-05-14T00:25:30;26.58;;;16.63;;
16824;SDS011;8529;48.108;-1.706;2023-05-14T00:27:57;27.38;;;16.90;;
16824;SDS011;8529;48.108;-1.706;2023-05-14T00:30:23;23.73;;;14.55;;
16824;SDS011;8529;48.108;-1.706;2023-05-14T00:32:50;26.52;;;15.98;;
16824;SDS011;8529;48.108;-1.706;2023-05-14T00:35:19;29.58;;;16.95;;
16824;SDS011;8529;48.108;-1.706;2023-05-14T00:37:46;26.77;;;17.10;;
16824;SDS011;8529;48.108;-1.706;2023-05-14T00:40:13;27.05;;;15.23;;
16824;SDS011;8529;48.108;-1.706;2023-05-14T00:42:40;26.77;;;16.42;;
16824;SDS011;8529;48.108;-1.706;2023-05-14T00:45:07;29.35;;;16.05;;
16824;SDS011;8529;48.108;-1.706;2023-05-14T00:47:34;25.05;;;16.50;;
16824;SDS011;8529;48.108;-1.706;2023-05-14T00:50:04;25.20;;;16.70;;
16824;SDS011;8529;48.108;-1.706;2023-05-14T00:52:33;26.88;;;16.10;;
16824;SDS011;8529;48.108;-1.706;2023-05-14T00:55:02;25.42;;;16.00;;
16824;SDS011;8529;48.108;-1.706;2023-05-14T00:57:29;28.70;;;16.33;;
16824;SDS011;8529;48.108;-1.706;2023-05-14T00:59:56;26.63;;;16.15;;
16824;SDS011;8529;48.108;-1.706;2023-05-14T01:02:24;24.55;;;15.63;;
16824;SDS011;8529;48.108;-1.706;2023-05-14T01:04:51;26.60;;;16.92;;
16824;SDS011;8529;48.108;-1.706;2023-05-14T01:07:20;30.38;;;17.52;;
16824;SDS011;8529;48.108;-1.706;2023-05-14T01:10:07;29.60;;;16.98;;
16824;SDS011;8529;48.108;-1.706;2023-05-14T01:12:39;27.90;;;17.05;;
16824;SDS011;8529;48.108;-1.706;2023-05-14T01:15:14;26.23;;;16.95;;
16824;SDS011;8529;48.108;-1.706;2023-05-14T01:17:45;28.45;;;17.25;;
16824;SDS011;8529;48.108;-1.706;2023-05-14T01:20:15;28.55;;;17.45;;
16824;SDS011;8529;48.108;-1.706;2023-05-14T01:22:44;23.88;;;16.25;;
16824;SDS011;8529;48.108;-1.706;2023-05-14T01:25:11;25.88;;;15.90;;
16824;SDS011;8529;48.108;-1.706;2023-05-14T01:27:40;29.77;;;16.92;;
16824;SDS011;8529;48.108;-1.706;2023-05-14T01:30:15;27.45;;;17.25;;
16824;SDS011;8529;48.108;-1.706;2023-05-14T01:32:47;28.08;;;17.05;;
16824;SDS011;8529;48.108;-1.706;2023-05-14T01:35:17;28.17;;;17.73;;
16824;SDS011;8529;48.108;-1.706;2023-05-14T01:37:46;27.25;;;15.95;;
16824;SDS011;8529;48.108;-1.706;2023-05-14T01:40:15;30.92;;;16.95;;
16824;SDS011;8529;48.108;-1.706;2023-05-14T01:42:42;29.17;;;17.35;;
16824;SDS011;8529;48.108;-1.706;2023-05-14T01:45:09;30.83;;;18.25;;
16824;SDS011;8529;48.108;-1.706;2023-05-14T01:47:36;33.55;;;18.67;;
16824;SDS011;8529;48.108;-1.706;2023-05-14T01:50:04;29.35;;;17.70;;
16824;SDS011;8529;48.108;-1.706;2023-05-14T01:52:31;30.25;;;18.70;;
16824;SDS011;8529;48.108;-1.706;2023-05-14T01:55:00;30.58;;;18.75;;
16824;SDS011;8529;48.108;-1.706;2023-05-14T01:57:26;31.50;;;19.05;;
16824;SDS011;8529;48.108;-1.706;2023-05-14T01:59:53;32.17;;;18.05;;
16824;SDS011;8529;48.108;-1.706;2023-05-14T02:02:20;31.55;;;18.55;;
16824;SDS011;8529;48.108;-1.706;2023-05-14T02:04:47;33.25;;;18.55;;
16824;SDS011;8529;48.108;-1.706;2023-05-14T02:07:14;31.58;;;18.38;;
16824;SDS011;8529;48.108;-1.706;2023-05-14T02:09:41;31.85;;;18.27;;
16824;SDS011;8529;48.108;-1.706;2023-05-14T02:12:09;34.78;;;18.85;;
16824;SDS011;8529;48.108;-1.706;2023-05-14T02:14:36;30.60;;;18.58;;
16824;SDS011;8529;48.108;-1.706;2023-05-14T02:17:03;32.58;;;19.25;;
16824;SDS011;8529;48.108;-1.706;2023-05-14T02:19:30;33.55;;;18.95;;
16824;SDS011;8529;48.108;-1.706;2023-05-14T02:21:57;38.58;;;19.45;;
16824;SDS011;8529;48.108;-1.706;2023-05-14T02:24:25;31.65;;;19.35;;
16824;SDS011;8529;48.108;-1.706;2023-05-14T02:26:52;35.38;;;19.60;;
16824;SDS011;8529;48.108;-1.706;2023-05-14T02:29:20;34.88;;;19.67;;
16824;SDS011;8529;48.108;-1.706;2023-05-14T02:31:47;34.20;;;18.70;;
16824;SDS011;8529;48.108;-1.706;2023-05-14T02:34:14;34.90;;;19.70;;
16824;SDS011;8529;48.108;-1.706;2023-05-14T02:36:41;36.08;;;20.05;;
16824;SDS011;8529;48.108;-1.706;2023-05-14T02:39:07;39.70;;;23.23;;
16824;SDS011;8529;48.108;-1.706;2023-05-14T02:41:34;36.80;;;20.55;;
16824;SDS011;8529;48.108;-1.706;2023-05-14T02:44:01;32.33;;;20.02;;
16824;SDS011;8529;48.108;-1.706;2023-05-14T02:46:30;37.72;;;20.23;;
16824;SDS011;8529;48.108;-1.706;2023-05-14T02:48:57;35.95;;;21.63;;
16824;SDS011;8529;48.108;-1.706;2023-05-14T02:51:24;41.78;;;22.38;;
16824;SDS011;8529;48.108;-1.706;2023-05-14T02:53:51;38.15;;;21.55;;
16824;SDS011;8529;48.108;-1.706;2023-05-14T02:56:18;35.10;;;19.42;;
16824;SDS011;8529;48.108;-1.706;2023-05-14T02:58:45;37.28;;;21.70;;
16824;SDS011;8529;48.108;-1.706;2023-05-14T03:01:12;40.08;;;22.13;;
16824;SDS011;8529;48.108;-1.706;2023-05-14T03:03:40;33.28;;;20.60;;
16824;SDS011;8529;48.108;-1.706;2023-05-14T03:06:07;34.70;;;20.48;;
16824;SDS011;8529;48.108;-1.706;2023-05-14T03:08:34;36.08;;;21.55;;
16824;SDS011;8529;48.108;-1.706;2023-05-14T03:11:01;34.65;;;20.02;;
16824;SDS011;8529;48.108;-1.706;2023-05-14T03:13:28;36.42;;;19.60;;
16824;SDS011;8529;48.108;-1.706;2023-05-14T03:15:55;35.15;;;21.77;;
16824;SDS011;8529;48.108;-1.706;2023-05-14T03:18:22;35.22;;;21.38;;
16824;SDS011;8529;48.108;-1.706;2023-05-14T03:20:50;37.85;;;20.55;;
16824;SDS011;8529;48.108;-1.706;2023-05-14T03:23:17;33.92;;;20.05;;
16824;SDS011;8529;48.108;-1.706;2023-05-14T03:25:44;35.33;;;20.63;;
16824;SDS011;8529;48.108;-1.706;2023-05-14T03:28:11;37.78;;;20.63;;
16824;SDS011;8529;48.108;-1.706;2023-05-14T03:30:37;35.15;;;20.27;;
16824;SDS011;8529;48.108;-1.706;2023-05-14T03:33:04;42.42;;;20.40;;
16824;SDS011;8529;48.108;-1.706;2023-05-14T03:35:32;34.63;;;20.70;;
16824;SDS011;8529;48.108;-1.706;2023-05-14T03:38:00;33.95;;;19.35;;
16824;SDS011;8529;48.108;-1.706;2023-05-14T03:40:27;40.15;;;19.88;;
16824;SDS011;8529;48.108;-1.706;2023-05-14T03:42:53;35.65;;;19.95;;
16824;SDS011;8529;48.108;-1.706;2023-05-14T03:45:21;40.65;;;20.00;;
16824;SDS011;8529;48.108;-1.706;2023-05-14T03:47:47;34.30;;;20.52;;
16824;SDS011;8529;48.108;-1.706;2023-05-14T03:50:14;36.30;;;20.08;;
16824;SDS011;8529;48.108;-1.706;2023-05-14T03:52:41;36.30;;;19.05;;
16824;SDS011;8529;48.108;-1.706;2023-05-14T03:55:11;35.72;;;19.85;;
16824;SDS011;8529;48.108;-1.706;2023-05-14T03:57:39;33.08;;;19.58;;
16824;SDS011;8529;48.108;-1.706;2023-05-14T04:00:06;34.92;;;19.95;;
16824;SDS011;8529;48.108;-1.706;2023-05-14T04:02:34;38.72;;;20.77;;
16824;SDS011;8529;48.108;-1.706;2023-05-14T04:05:01;38.63;;;19.58;;
16824;SDS011;8529;48.108;-1.706;2023-05-14T04:07:28;38.28;;;20.13;;
16824;SDS011;8529;48.108;-1.706;2023-05-14T04:09:55;36.20;;;18.90;;
16824;SDS011;8529;48.108;-1.706;2023-05-14T04:12:23;39.55;;;20.10;;
16824;SDS011;8529;48.108;-1.706;2023-05-14T04:14:50;37.55;;;19.42;;
16824;SDS011;8529;48.108;-1.706;2023-05-14T04:17:17;37.88;;;18.95;;
16824;SDS011;8529;48.108;-1.706;2023-05-14T04:19:44;37.65;;;20.00;;
16824;SDS011;8529;48.108;-1.706;2023-05-14T04:22:11;38.03;;;19.77;;
16824;SDS011;8529;48.108;-1.706;2023-05-14T04:24:38;38.15;;;20.73;;
16824;SDS011;8529;48.108;-1.706;2023-05-14T04:27:05;36.92;;;20.80;;
16824;SDS011;8529;48.108;-1.706;2023-05-14T04:29:33;35.92;;;19.98;;
16824;SDS011;8529;48.108;-1.706;2023-05-14T04:32:00;36.22;;;19.92;;
16824;SDS011;8529;48.108;-1.706;2023-05-14T04:34:27;36.00;;;20.15;;
16824;SDS011;8529;48.108;-1.706;2023-05-14T04:36:53;37.15;;;20.85;;
16824;SDS011;8529;48.108;-1.706;2023-05-14T04:39:20;39.95;;;20.65;;
16824;SDS011;8529;48.108;-1.706;2023-05-14T04:41:47;37.85;;;20.73;;
16824;SDS011;8529;48.108;-1.706;2023-05-14T04:44:15;39.75;;;20.65;;
16824;SDS011;8529;48.108;-1.706;2023-05-14T04:46:43;37.28;;;20.30;;
16824;SDS011;8529;48.108;-1.706;2023-05-14T04:49:10;41.25;;;20.05;;
16824;SDS011;8529;48.108;-1.706;2023-05-14T04:51:37;37.90;;;20.63;;
16824;SDS011;8529;48.108;-1.706;2023-05-14T04:54:04;36.85;;;19.50;;
16824;SDS011;8529;48.108;-1.706;2023-05-14T04:56:31;39.70;;;20.27;;
16824;SDS011;8529;48.108;-1.706;2023-05-14T04:58:58;38.63;;;19.63;;
16824;SDS011;8529;48.108;-1.706;2023-05-14T05:01:25;39.08;;;20.67;;
16824;SDS011;8529;48.108;-1.706;2023-05-14T05:03:53;37.10;;;20.95;;
16824;SDS011;8529;48.108;-1.706;2023-05-14T05:06:21;41.85;;;20.58;;
16824;SDS011;8529;48.108;-1.706;2023-05-14T05:08:48;37.47;;;20.20;;
16824;SDS011;8529;48.108;-1.706;2023-05-14T05:11:15;39.58;;;21.08;;
16824;SDS011;8529;48.108;-1.706;2023-05-14T05:13:42;42.63;;;21.58;;
16824;SDS011;8529;48.108;-1.706;2023-05-14T05:16:09;39.67;;;20.17;;
16824;SDS011;8529;48.108;-1.706;2023-05-14T05:18:35;46.08;;;22.67;;
16824;SDS011;8529;48.108;-1.706;2023-05-14T05:21:04;36.17;;;19.58;;
16824;SDS011;8529;48.108;-1.706;2023-05-14T05:23:31;39.53;;;19.02;;
16824;SDS011;8529;48.108;-1.706;2023-05-14T05:25:58;36.40;;;20.23;;
16824;SDS011;8529;48.108;-1.706;2023-05-14T05:28:25;37.10;;;18.98;;
16824;SDS011;8529;48.108;-1.706;2023-05-14T05:30:52;37.38;;;19.88;;
16824;SDS011;8529;48.108;-1.706;2023-05-14T05:33:19;39.50;;;20.27;;
16824;SDS011;8529;48.108;-1.706;2023-05-14T05:35:46;41.40;;;21.17;;
16824;SDS011;8529;48.108;-1.706;2023-05-14T05:38:15;38.78;;;19.85;;
16824;SDS011;8529;48.108;-1.706;2023-05-14T05:40:43;37.30;;;20.00;;
16824;SDS011;8529;48.108;-1.706;2023-05-14T05:43:10;40.65;;;21.02;;
16824;SDS011;8529;48.108;-1.706;2023-05-14T05:45:37;40.78;;;19.63;;
16824;SDS011;8529;48.108;-1.706;2023-05-14T05:48:05;40.17;;;21.52;;
16824;SDS011;8529;48.108;-1.706;2023-05-14T05:50:32;42.67;;;20.38;;
16824;SDS011;8529;48.108;-1.706;2023-05-14T05:52:59;38.95;;;20.85;;
16824;SDS011;8529;48.108;-1.706;2023-05-14T05:55:27;39.47;;;19.58;;
16824;SDS011;8529;48.108;-1.706;2023-05-14T05:57:54;36.88;;;19.73;;
16824;SDS011;8529;48.108;-1.706;2023-05-14T06:00:21;37.97;;;19.58;;
16824;SDS011;8529;48.108;-1.706;2023-05-14T06:02:48;35.55;;;19.58;;
16824;SDS011;8529;48.108;-1.706;2023-05-14T06:05:15;43.25;;;21.13;;
16824;SDS011;8529;48.108;-1.706;2023-05-14T06:07:43;44.20;;;21.95;;
16824;SDS011;8529;48.108;-1.706;2023-05-14T06:10:10;44.55;;;21.67;;
16824;SDS011;8529;48.108;-1.706;2023-05-14T06:12:38;39.30;;;21.02;;
16824;SDS011;8529;48.108;-1.706;2023-05-14T06:15:06;40.10;;;19.38;;
16824;SDS011;8529;48.108;-1.706;2023-05-14T06:17:33;42.67;;;20.98;;
16824;SDS011;8529;48.108;-1.706;2023-05-14T06:20:00;40.13;;;19.60;;
16824;SDS011;8529;48.108;-1.706;2023-05-14T06:22:27;44.67;;;20.58;;
16824;SDS011;8529;48.108;-1.706;2023-05-14T06:24:54;41.38;;;21.83;;
16824;SDS011;8529;48.108;-1.706;2023-05-14T06:27:20;37.83;;;20.30;;
16824;SDS011;8529;48.108;-1.706;2023-05-14T06:29:49;42.10;;;21.02;;
16824;SDS011;8529;48.108;-1.706;2023-05-14T06:32:16;44.65;;;20.80;;
16824;SDS011;8529;48.108;-1.706;2023-05-14T06:34:43;35.45;;;19.13;;
16824;SDS011;8529;48.108;-1.706;2023-05-14T06:37:10;35.75;;;19.77;;
16824;SDS011;8529;48.108;-1.706;2023-05-14T06:39:37;35.97;;;19.13;;
16824;SDS011;8529;48.108;-1.706;2023-05-14T06:42:04;34.67;;;19.02;;
16824;SDS011;8529;48.108;-1.706;2023-05-14T06:44:31;39.33;;;21.23;;
16824;SDS011;8529;48.108;-1.706;2023-05-14T06:47:00;37.47;;;20.15;;
16824;SDS011;8529;48.108;-1.706;2023-05-14T06:49:26;32.65;;;19.58;;
16824;SDS011;8529;48.108;-1.706;2023-05-14T06:51:53;40.53;;;19.83;;
16824;SDS011;8529;48.108;-1.706;2023-05-14T06:54:20;40.35;;;19.58;;
16824;SDS011;8529;48.108;-1.706;2023-05-14T06:56:47;37.25;;;19.42;;
16824;SDS011;8529;48.108;-1.706;2023-05-14T06:59:14;35.20;;;20.45;;
16824;SDS011;8529;48.108;-1.706;2023-05-14T07:01:41;36.50;;;20.77;;
16824;SDS011;8529;48.108;-1.706;2023-05-14T07:04:09;34.17;;;19.58;;
16824;SDS011;8529;48.108;-1.706;2023-05-14T07:06:36;34.22;;;19.85;;
16824;SDS011;8529;48.108;-1.706;2023-05-14T07:09:04;37.05;;;20.50;;
16824;SDS011;8529;48.108;-1.706;2023-05-14T07:11:31;31.42;;;18.60;;
16824;SDS011;8529;48.108;-1.706;2023-05-14T07:13:58;35.85;;;19.15;;
16824;SDS011;8529;48.108;-1.706;2023-05-14T07:16:25;36.35;;;20.23;;
16824;SDS011;8529;48.108;-1.706;2023-05-14T07:18:52;35.75;;;20.55;;
16824;SDS011;8529;48.108;-1.706;2023-05-14T07:21:20;33.42;;;18.27;;
16824;SDS011;8529;48.108;-1.706;2023-05-14T07:23:47;30.83;;;17.45;;
16824;SDS011;8529;48.108;-1.706;2023-05-14T07:26:14;35.97;;;18.83;;
16824;SDS011;8529;48.108;-1.706;2023-05-14T07:28:41;36.28;;;18.80;;
16824;SDS011;8529;48.108;-1.706;2023-05-14T07:31:08;35.70;;;19.38;;
16824;SDS011;8529;48.108;-1.706;2023-05-14T07:33:35;37.28;;;19.55;;
16824;SDS011;8529;48.108;-1.706;2023-05-14T07:36:01;32.58;;;19.05;;
16824;SDS011;8529;48.108;-1.706;2023-05-14T07:38:30;31.92;;;19.35;;
16824;SDS011;8529;48.108;-1.706;2023-05-14T07:40:57;31.55;;;18.88;;
16824;SDS011;8529;48.108;-1.706;2023-05-14T07:43:24;34.22;;;19.70;;
16824;SDS011;8529;48.108;-1.706;2023-05-14T07:45:52;32.40;;;18.70;;
16824;SDS011;8529;48.108;-1.706;2023-05-14T07:48:19;36.47;;;18.40;;
16824;SDS011;8529;48.108;-1.706;2023-05-14T07:50:46;30.98;;;17.88;;
16824;SDS011;8529;48.108;-1.706;2023-05-14T07:53:13;34.35;;;18.65;;
16824;SDS011;8529;48.108;-1.706;2023-05-14T07:55:43;32.67;;;18.55;;
16824;SDS011;8529;48.108;-1.706;2023-05-14T07:58:12;30.83;;;18.40;;
16824;SDS011;8529;48.108;-1.706;2023-05-14T08:00:39;31.70;;;17.58;;
16824;SDS011;8529;48.108;-1.706;2023-05-14T08:03:06;31.10;;;18.90;;
16824;SDS011;8529;48.108;-1.706;2023-05-14T08:05:33;30.92;;;18.80;;
16824;SDS011;8529;48.108;-1.706;2023-05-14T08:08:00;30.77;;;18.70;;
16824;SDS011;8529;48.108;-1.706;2023-05-14T08:10:27;30.48;;;17.73;;
16824;SDS011;8529;48.108;-1.706;2023-05-14T08:12:55;33.17;;;18.20;;
16824;SDS011;8529;48.108;-1.706;2023-05-14T08:15:22;29.67;;;17.52;;
16824;SDS011;8529;48.108;-1.706;2023-05-14T08:17:49;31.58;;;18.67;;
16824;SDS011;8529;48.108;-1.706;2023-05-14T08:20:15;27.48;;;17.20;;
16824;SDS011;8529;48.108;-1.706;2023-05-14T08:22:42;20.08;;;12.93;;
16824;SDS011;8529;48.108;-1.706;2023-05-14T08:25:09;26.25;;;14.70;;
16824;SDS011;8529;48.108;-1.706;2023-05-14T08:27:36;27.20;;;17.02;;
16824;SDS011;8529;48.108;-1.706;2023-05-14T08:30:05;27.63;;;16.85;;
16824;SDS011;8529;48.108;-1.706;2023-05-14T08:32:33;26.77;;;16.38;;
16824;SDS011;8529;48.108;-1.706;2023-05-14T08:34:59;22.25;;;15.32;;
16824;SDS011;8529;48.108;-1.706;2023-05-14T08:37:26;22.98;;;16.00;;
16824;SDS011;8529;48.108;-1.706;2023-05-14T08:39:53;23.23;;;14.02;;
16824;SDS011;8529;48.108;-1.706;2023-05-14T08:42:20;26.52;;;16.30;;
16824;SDS011;8529;48.108;-1.706;2023-05-14T08:44:52;23.30;;;14.82;;
16824;SDS011;8529;48.108;-1.706;2023-05-14T08:47:24;22.20;;;15.32;;
16824;SDS011;8529;48.108;-1.706;2023-05-14T08:49:53;28.38;;;16.98;;
16824;SDS011;8529;48.108;-1.706;2023-05-14T08:52:26;26.70;;;17.45;;
16824;SDS011;8529;48.108;-1.706;2023-05-14T08:54:53;22.60;;;15.13;;
16824;SDS011;8529;48.108;-1.706;2023-05-14T08:57:22;25.25;;;15.90;;
16824;SDS011;8529;48.108;-1.706;2023-05-14T08:59:51;26.98;;;17.25;;
16824;SDS011;8529;48.108;-1.706;2023-05-14T09:02:19;23.13;;;14.23;;
16824;SDS011;8529;48.108;-1.706;2023-05-14T09:04:49;22.33;;;15.05;;
16824;SDS011;8529;48.108;-1.706;2023-05-14T09:07:21;28.25;;;17.55;;
16824;SDS011;8529;48.108;-1.706;2023-05-14T09:09:48;25.75;;;16.70;;
16824;SDS011;8529;48.108;-1.706;2023-05-14T09:12:17;24.48;;;16.63;;
16824;SDS011;8529;48.108;-1.706;2023-05-14T09:14:44;24.65;;;15.32;;
16824;SDS011;8529;48.108;-1.706;2023-05-14T09:17:11;22.00;;;13.73;;
16824;SDS011;8529;48.108;-1.706;2023-05-14T09:19:38;24.58;;;15.98;;
16824;SDS011;8529;48.108;-1.706;2023-05-14T09:22:08;29.30;;;17.45;;
16824;SDS011;8529;48.108;-1.706;2023-05-14T09:24:37;26.63;;;17.38;;
16824;SDS011;8529;48.108;-1.706;2023-05-14T09:27:04;29.38;;;17.45;;
16824;SDS011;8529;48.108;-1.706;2023-05-14T09:29:32;26.27;;;16.95;;
16824;SDS011;8529;48.108;-1.706;2023-05-14T09:31:59;31.23;;;17.42;;
16824;SDS011;8529;48.108;-1.706;2023-05-14T09:34:29;24.88;;;17.17;;
16824;SDS011;8529;48.108;-1.706;2023-05-14T09:36:58;31.88;;;16.77;;
16824;SDS011;8529;48.108;-1.706;2023-05-14T09:39:28;24.75;;;17.52;;
16824;SDS011;8529;48.108;-1.706;2023-05-14T09:41:56;26.13;;;16.75;;
16824;SDS011;8529;48.108;-1.706;2023-05-14T09:44:23;26.83;;;18.38;;
16824;SDS011;8529;48.108;-1.706;2023-05-14T09:46:50;28.55;;;19.00;;
16824;SDS011;8529;48.108;-1.706;2023-05-14T09:49:18;23.58;;;16.52;;
16824;SDS011;8529;48.108;-1.706;2023-05-14T09:51:45;26.45;;;17.13;;
16824;SDS011;8529;48.108;-1.706;2023-05-14T09:54:13;24.27;;;16.02;;
16824;SDS011;8529;48.108;-1.706;2023-05-14T09:56:41;24.92;;;16.08;;
16824;SDS011;8529;48.108;-1.706;2023-05-14T09:59:09;29.52;;;16.30;;
16824;SDS011;8529;48.108;-1.706;2023-05-14T10:01:36;27.92;;;17.75;;
16824;SDS011;8529;48.108;-1.706;2023-05-14T10:04:05;28.38;;;17.15;;
16824;SDS011;8529;48.108;-1.706;2023-05-14T10:06:35;26.17;;;16.67;;
16824;SDS011;8529;48.108;-1.706;2023-05-14T10:09:03;26.17;;;17.98;;
16824;SDS011;8529;48.108;-1.706;2023-05-14T10:11:37;25.20;;;16.42;;
16824;SDS011;8529;48.108;-1.706;2023-05-14T10:14:10;26.08;;;16.67;;
16824;SDS011;8529;48.108;-1.706;2023-05-14T10:16:42;23.85;;;16.45;;
16824;SDS011;8529;48.108;-1.706;2023-05-14T10:19:12;23.58;;;15.60;;
16824;SDS011;8529;48.108;-1.706;2023-05-14T10:21:44;24.73;;;15.90;;
16824;SDS011;8529;48.108;-1.706;2023-05-14T10:24:13;23.08;;;15.50;;
16824;SDS011;8529;48.108;-1.706;2023-05-14T10:26:41;28.65;;;16.83;;
16824;SDS011;8529;48.108;-1.706;2023-05-14T10:29:09;24.92;;;16.85;;
16824;SDS011;8529;48.108;-1.706;2023-05-14T10:31:47;22.98;;;15.73;;
16824;SDS011;8529;48.108;-1.706;2023-05-14T10:36:59;24.67;;;18.27;;
16824;SDS011;8529;48.108;-1.706;2023-05-14T10:39:39;27.42;;;19.77;;
16824;SDS011;8529;48.108;-1.706;2023-05-14T10:42:10;25.23;;;17.17;;
16824;SDS011;8529;48.108;-1.706;2023-05-14T10:44:43;21.27;;;15.27;;
16824;SDS011;8529;48.108;-1.706;2023-05-14T10:47:15;17.25;;;12.98;;
16824;SDS011;8529;48.108;-1.706;2023-05-14T10:49:43;21.35;;;14.95;;
16824;SDS011;8529;48.108;-1.706;2023-05-14T10:52:14;25.10;;;16.00;;
16824;SDS011;8529;48.108;-1.706;2023-05-14T10:54:44;22.42;;;15.73;;
16824;SDS011;8529;48.108;-1.706;2023-05-14T10:57:14;22.48;;;15.52;;
16824;SDS011;8529;48.108;-1.706;2023-05-14T10:59:44;23.40;;;15.80;;
16824;SDS011;8529;48.108;-1.706;2023-05-14T11:02:19;23.92;;;16.48;;
16824;SDS011;8529;48.108;-1.706;2023-05-14T11:04:53;23.98;;;14.75;;
16824;SDS011;8529;48.108;-1.706;2023-05-14T11:07:24;21.58;;;14.43;;
16824;SDS011;8529;48.108;-1.706;2023-05-14T11:09:55;21.40;;;15.10;;
16824;SDS011;8529;48.108;-1.706;2023-05-14T11:12:27;24.58;;;15.00;;
16824;SDS011;8529;48.108;-1.706;2023-05-14T11:14:57;21.75;;;15.25;;
16824;SDS011;8529;48.108;-1.706;2023-05-14T11:17:25;20.80;;;13.70;;
16824;SDS011;8529;48.108;-1.706;2023-05-14T11:19:53;20.08;;;13.63;;
16824;SDS011;8529;48.108;-1.706;2023-05-14T11:22:20;21.70;;;14.23;;
16824;SDS011;8529;48.108;-1.706;2023-05-14T11:24:47;20.15;;;13.65;;
16824;SDS011;8529;48.108;-1.706;2023-05-14T11:27:15;19.40;;;13.60;;
16824;SDS011;8529;48.108;-1.706;2023-05-14T11:29:43;18.77;;;13.57;;
16824;SDS011;8529;48.108;-1.706;2023-05-14T11:32:12;18.30;;;13.07;;
16824;SDS011;8529;48.108;-1.706;2023-05-14T11:34:41;19.95;;;13.82;;
16824;SDS011;8529;48.108;-1.706;2023-05-14T11:37:09;21.00;;;14.40;;
16824;SDS011;8529;48.108;-1.706;2023-05-14T11:39:38;20.73;;;14.80;;
16824;SDS011;8529;48.108;-1.706;2023-05-14T11:42:11;22.25;;;14.43;;
16824;SDS011;8529;48.108;-1.706;2023-05-14T11:44:40;18.55;;;13.48;;
16824;SDS011;8529;48.108;-1.706;2023-05-14T11:47:08;20.25;;;13.98;;
16824;SDS011;8529;48.108;-1.706;2023-05-14T11:49:37;22.15;;;14.60;;
16824;SDS011;8529;48.108;-1.706;2023-05-14T11:52:05;19.88;;;14.73;;
16824;SDS011;8529;48.108;-1.706;2023-05-14T11:54:33;24.20;;;15.77;;
16824;SDS011;8529;48.108;-1.706;2023-05-14T11:57:01;20.25;;;13.77;;
16824;SDS011;8529;48.108;-1.706;2023-05-14T11:59:33;16.98;;;11.95;;
16824;SDS011;8529;48.108;-1.706;2023-05-14T12:02:00;20.33;;;13.77;;
16824;SDS011;8529;48.108;-1.706;2023-05-14T12:04:29;19.77;;;13.25;;
16824;SDS011;8529;48.108;-1.706;2023-05-14T12:06:58;22.90;;;15.13;;
16824;SDS011;8529;48.108;-1.706;2023-05-14T12:09:25;19.05;;;14.18;;
16824;SDS011;8529;48.108;-1.706;2023-05-14T12:11:52;19.55;;;13.75;;
16824;SDS011;8529;48.108;-1.706;2023-05-14T12:14:19;18.98;;;13.70;;
16824;SDS011;8529;48.108;-1.706;2023-05-14T12:16:47;20.40;;;13.48;;
16824;SDS011;8529;48.108;-1.706;2023-05-14T12:19:15;18.13;;;12.93;;
16824;SDS011;8529;48.108;-1.706;2023-05-14T12:21:44;18.17;;;13.30;;
16824;SDS011;8529;48.108;-1.706;2023-05-14T12:24:16;20.92;;;14.65;;
16824;SDS011;8529;48.108;-1.706;2023-05-14T12:26:45;18.83;;;13.88;;
16824;SDS011;8529;48.108;-1.706;2023-05-14T12:29:13;22.92;;;15.77;;
16824;SDS011;8529;48.108;-1.706;2023-05-14T12:31:44;19.00;;;13.27;;
16824;SDS011;8529;48.108;-1.706;2023-05-14T12:34:12;19.23;;;12.45;;
16824;SDS011;8529;48.108;-1.706;2023-05-14T12:36:39;21.08;;;14.07;;
16824;SDS011;8529;48.108;-1.706;2023-05-14T12:39:07;11.18;;;8.45;;
16824;SDS011;8529;48.108;-1.706;2023-05-14T12:41:35;13.07;;;10.48;;
16824;SDS011;8529;48.108;-1.706;2023-05-14T12:44:03;21.23;;;13.45;;
16824;SDS011;8529;48.108;-1.706;2023-05-14T12:46:30;20.55;;;13.30;;
16824;SDS011;8529;48.108;-1.706;2023-05-14T12:48:59;16.88;;;13.02;;
16824;SDS011;8529;48.108;-1.706;2023-05-14T12:51:26;15.75;;;11.00;;
16824;SDS011;8529;48.108;-1.706;2023-05-14T12:53:53;21.90;;;14.85;;
16824;SDS011;8529;48.108;-1.706;2023-05-14T12:56:19;21.77;;;15.95;;
16824;SDS011;8529;48.108;-1.706;2023-05-14T12:58:53;19.55;;;14.25;;
16824;SDS011;8529;48.108;-1.706;2023-05-14T13:01:21;17.67;;;12.82;;
16824;SDS011;8529;48.108;-1.706;2023-05-14T13:03:47;18.55;;;12.52;;
16824;SDS011;8529;48.108;-1.706;2023-05-14T13:06:14;17.80;;;12.43;;
16824;SDS011;8529;48.108;-1.706;2023-05-14T13:08:42;18.77;;;13.15;;
16824;SDS011;8529;48.108;-1.706;2023-05-14T13:11:09;17.92;;;12.93;;
16824;SDS011;8529;48.108;-1.706;2023-05-14T13:13:35;17.25;;;12.10;;
16824;SDS011;8529;48.108;-1.706;2023-05-14T13:16:04;19.38;;;13.25;;
16824;SDS011;8529;48.108;-1.706;2023-05-14T13:18:31;15.23;;;12.25;;
16824;SDS011;8529;48.108;-1.706;2023-05-14T13:20:58;18.85;;;13.32;;
16824;SDS011;8529;48.108;-1.706;2023-05-14T13:23:28;16.58;;;12.93;;
16824;SDS011;8529;48.108;-1.706;2023-05-14T13:25:55;16.83;;;11.85;;
16824;SDS011;8529;48.108;-1.706;2023-05-14T13:28:22;15.65;;;12.40;;
16824;SDS011;8529;48.108;-1.706;2023-05-14T13:31:02;17.98;;;13.00;;
16824;SDS011;8529;48.108;-1.706;2023-05-14T13:33:32;18.90;;;13.60;;
16824;SDS011;8529;48.108;-1.706;2023-05-14T13:36:00;17.55;;;12.55;;
16824;SDS011;8529;48.108;-1.706;2023-05-14T13:38:27;19.20;;;13.68;;
16824;SDS011;8529;48.108;-1.706;2023-05-14T13:40:54;19.70;;;13.38;;
16824;SDS011;8529;48.108;-1.706;2023-05-14T13:43:26;20.25;;;13.52;;
16824;SDS011;8529;48.108;-1.706;2023-05-14T13:45:53;20.17;;;13.40;;
16824;SDS011;8529;48.108;-1.706;2023-05-14T13:48:22;18.30;;;14.00;;
16824;SDS011;8529;48.108;-1.706;2023-05-14T13:50:49;15.05;;;11.68;;
16824;SDS011;8529;48.108;-1.706;2023-05-14T13:53:16;15.23;;;12.45;;
16824;SDS011;8529;48.108;-1.706;2023-05-14T13:55:44;16.45;;;11.73;;
16824;SDS011;8529;48.108;-1.706;2023-05-14T13:58:11;13.02;;;11.10;;
16824;SDS011;8529;48.108;-1.706;2023-05-14T14:00:38;11.18;;;9.35;;
16824;SDS011;8529;48.108;-1.706;2023-05-14T14:03:05;14.60;;;10.23;;
16824;SDS011;8529;48.108;-1.706;2023-05-14T14:05:34;11.85;;;9.25;;
16824;SDS011;8529;48.108;-1.706;2023-05-14T14:08:01;20.70;;;12.57;;
16824;SDS011;8529;48.108;-1.706;2023-05-14T14:10:28;12.32;;;10.07;;
16824;SDS011;8529;48.108;-1.706;2023-05-14T14:12:55;9.32;;;8.30;;
16824;SDS011;8529;48.108;-1.706;2023-05-14T14:15:23;10.50;;;8.02;;
16824;SDS011;8529;48.108;-1.706;2023-05-14T14:17:49;11.27;;;8.02;;
16824;SDS011;8529;48.108;-1.706;2023-05-14T14:20:16;8.15;;;6.85;;
16824;SDS011;8529;48.108;-1.706;2023-05-14T14:22:45;10.70;;;7.95;;
16824;SDS011;8529;48.108;-1.706;2023-05-14T14:25:12;9.52;;;7.50;;
16824;SDS011;8529;48.108;-1.706;2023-05-14T14:27:39;10.55;;;7.22;;